Search for airport 
image banner adimage banner adimage banner ad
image banner ad

NV61 - Gilbert Development Corp

Located in Las Vegas, United States

ICAO - NV61, IATA -

Data provided by Airmate  

General information

Coordinates: N36°13'5" W115°8'1"
Elevation is 1981 feet MSL.
Magnetic variation is 14° East
View others Airports in Nevada

Operational data

Special qualification required
Current time UTC:
Current local time:
Weather at : KVGT - North Las Vegas ( 6 km )
METAR: KVGT 092153Z AUTO 03004KT 10SM CLR 31/M12 A2975 RMK AO2 SLP067 T03061117
TAF: KVGT 091725Z 0918/1018 35010KT P6SM FEW160 FM092200 25011KT P6SM FEW250 FM100400 31008KT P6SM FEW200
View NOTAMs / SUP AIP / TFR affecting this airport [VIEW]
Communications frequencies: [VIEW]

Runways:

Airport contact information

Address: Las Vegas United States

Satellite view of NV61